createdAt,value
2023-03-31T00:01:01.069Z,41.30
2023-03-31T00:03:36.436Z,39.35
2023-03-31T00:06:11.456Z,46.48
2023-03-31T00:08:45.654Z,43.23
2023-03-31T00:11:18.148Z,45.88
2023-03-31T00:13:51.106Z,45.50
2023-03-31T00:16:24.222Z,48.42
2023-03-31T00:18:56.853Z,45.08
2023-03-31T00:21:37.239Z,42.40
2023-03-31T00:24:10.895Z,45.05
2023-03-31T00:26:43.836Z,46.23
2023-03-31T00:29:16.487Z,56.77
2023-03-31T00:31:49.003Z,51.30
2023-03-31T00:34:21.712Z,57.93
2023-03-31T00:36:56.833Z,54.20
2023-03-31T00:42:13.944Z,69.80
2023-03-31T00:45:20.532Z,65.57
2023-03-31T00:48:04.511Z,72.92
2023-03-31T00:50:40.881Z,72.08
2023-03-31T00:53:17.229Z,80.42
2023-03-31T00:55:57.122Z,71.22
2023-03-31T00:58:31.864Z,68.12
2023-03-31T01:01:04.526Z,70.08
2023-03-31T01:03:38.567Z,66.97
2023-03-31T01:06:25.554Z,67.65
2023-03-31T01:08:58.038Z,74.32
2023-03-31T01:11:31.201Z,78.15
2023-03-31T01:14:04.498Z,79.47
2023-03-31T01:16:38.768Z,73.07
2023-03-31T01:19:16.333Z,65.75
2023-03-31T01:22:13.166Z,70.97
2023-03-31T01:25:01.072Z,69.47
2023-03-31T01:28:07.912Z,59.05
2023-03-31T01:31:22.082Z,57.67
2023-03-31T01:34:18.098Z,62.80
2023-03-31T01:40:20.474Z,64.03
2023-03-31T01:42:59.363Z,62.53
2023-03-31T01:45:43.151Z,81.95
2023-03-31T01:49:01.381Z,72.65
2023-03-31T01:51:38.541Z,68.62
2023-03-31T01:54:25.664Z,62.58
2023-03-31T01:57:24.574Z,61.77
2023-03-31T02:00:18.472Z,54.20
2023-03-31T02:03:19.287Z,48.83
2023-03-31T02:06:01.950Z,46.37
2023-03-31T02:08:57.401Z,40.03
2023-03-31T02:11:32.017Z,37.25
2023-03-31T02:14:07.765Z,38.67
2023-03-31T02:16:58.958Z,31.57
2023-03-31T02:19:40.986Z,31.48
2023-03-31T02:22:14.133Z,31.52
2023-03-31T02:24:46.659Z,28.42
2023-03-31T02:27:24.090Z,30.40
2023-03-31T02:29:57.194Z,26.25
2023-03-31T02:32:44.123Z,30.57
2023-03-31T02:35:21.693Z,26.00
2023-03-31T02:37:54.272Z,27.35
2023-03-31T02:40:27.934Z,27.02
2023-03-31T02:43:00.522Z,28.05
2023-03-31T02:45:52.334Z,29.00
2023-03-31T02:48:35.345Z,28.62
2023-03-31T02:51:28.473Z,30.23
2023-03-31T02:54:54.853Z,29.77
2023-03-31T02:58:06.598Z,28.40
2023-03-31T03:01:02.807Z,30.23
2023-03-31T03:04:06.489Z,25.68
2023-03-31T03:07:00.556Z,31.20
2023-03-31T03:09:47.059Z,30.08
2023-03-31T03:13:07.050Z,23.87
2023-03-31T03:15:47.371Z,24.12
2023-03-31T03:18:20.446Z,22.65
2023-03-31T03:20:53.750Z,22.62
2023-03-31T03:23:26.781Z,23.83
2023-03-31T03:25:59.208Z,22.65
2023-03-31T03:28:32.011Z,22.25
2023-03-31T03:31:04.817Z,21.12
2023-03-31T03:33:38.448Z,23.50
2023-03-31T03:36:11.747Z,27.25
2023-03-31T03:38:45.217Z,21.90
2023-03-31T03:41:18.101Z,19.85
2023-03-31T03:43:50.893Z,22.42
2023-03-31T03:46:23.702Z,23.00
2023-03-31T03:48:56.544Z,20.92
2023-03-31T03:51:29.394Z,24.98
2023-03-31T03:54:03.345Z,19.02
2023-03-31T03:56:36.771Z,21.43
2023-03-31T03:59:09.726Z,18.02
2023-03-31T04:01:42.810Z,23.05
2023-03-31T04:04:16.677Z,20.50
2023-03-31T04:06:49.710Z,19.52
2023-03-31T04:09:22.306Z,20.37
2023-03-31T04:11:55.731Z,17.52
2023-03-31T04:14:28.686Z,17.15
2023-03-31T04:17:02.777Z,18.52
2023-03-31T04:19:35.674Z,19.17
2023-03-31T04:22:10.113Z,16.70
2023-03-31T04:24:44.538Z,16.02
2023-03-31T04:29:51.997Z,16.35
2023-03-31T04:34:58.694Z,17.52
2023-03-31T04:37:37.679Z,14.85
2023-03-31T04:40:11.985Z,15.10
2023-03-31T04:42:46.185Z,14.40
2023-03-31T04:45:18.929Z,13.75
2023-03-31T04:47:52.324Z,14.65
2023-03-31T04:50:25.340Z,12.68
2023-03-31T04:52:58.131Z,14.40
2023-03-31T04:55:31.652Z,16.52
2023-03-31T04:58:05.408Z,19.00
2023-03-31T05:00:38.320Z,17.65
2023-03-31T05:03:11.102Z,13.60
2023-03-31T05:05:44.016Z,18.85
2023-03-31T05:08:16.970Z,17.07
2023-03-31T05:10:50.563Z,19.42
2023-03-31T05:13:24.337Z,18.77
2023-03-31T05:15:56.768Z,21.73
2023-03-31T05:18:30.536Z,19.07
2023-03-31T05:21:14.886Z,19.23
2023-03-31T05:23:49.322Z,21.00
2023-03-31T05:26:23.188Z,17.75
2023-03-31T05:31:28.244Z,17.25
2023-03-31T05:36:45.303Z,16.42
2023-03-31T05:39:18.960Z,17.52
2023-03-31T05:41:51.312Z,22.75
2023-03-31T05:44:24.048Z,18.90
2023-03-31T05:46:56.682Z,18.35
2023-03-31T05:49:29.439Z,19.67
2023-03-31T05:52:02.093Z,18.70
2023-03-31T05:54:34.696Z,19.50
2023-03-31T05:57:07.546Z,23.38
2023-03-31T05:59:41.808Z,19.57
2023-03-31T06:07:25.321Z,17.62
2023-03-31T06:09:59.172Z,19.85
2023-03-31T06:12:33.199Z,18.82
2023-03-31T06:15:06.907Z,19.73
2023-03-31T06:17:41.378Z,18.37
2023-03-31T06:20:27.074Z,22.22
2023-03-31T06:22:49.230Z,20.92
2023-03-31T06:25:22.150Z,18.57
2023-03-31T06:27:54.771Z,19.57
2023-03-31T06:30:27.994Z,25.60
2023-03-31T06:33:01.516Z,21.45
2023-03-31T06:35:34.218Z,19.65
2023-03-31T06:38:06.670Z,21.60
2023-03-31T06:40:39.081Z,16.87
2023-03-31T06:43:11.488Z,21.25
2023-03-31T06:45:45.892Z,20.82
2023-03-31T06:48:18.485Z,20.95
2023-03-31T06:50:50.889Z,19.95
2023-03-31T06:53:23.578Z,20.55
2023-03-31T06:55:56.387Z,19.15
2023-03-31T06:58:31.455Z,20.97
2023-03-31T07:01:05.963Z,21.45
2023-03-31T07:03:39.788Z,20.60
2023-03-31T07:06:12.543Z,19.82
2023-03-31T07:08:45.530Z,20.68
2023-03-31T07:11:21.125Z,18.80
2023-03-31T07:13:53.457Z,19.10
2023-03-31T07:16:26.382Z,17.73
2023-03-31T07:19:00.239Z,21.77
2023-03-31T07:21:33.228Z,20.02
2023-03-31T07:24:06.021Z,20.60
2023-03-31T07:26:39.969Z,19.73
2023-03-31T07:29:12.679Z,19.52
2023-03-31T07:31:47.813Z,20.35
2023-03-31T07:34:21.355Z,23.15
2023-03-31T07:36:58.311Z,22.85
2023-03-31T07:39:31.143Z,24.05
2023-03-31T07:42:03.971Z,25.90
2023-03-31T07:44:37.710Z,18.40
2023-03-31T07:47:10.328Z,17.17
2023-03-31T07:49:42.706Z,22.35
2023-03-31T07:52:16.617Z,18.52
2023-03-31T07:54:49.137Z,23.32
2023-03-31T07:57:23.334Z,20.32
2023-03-31T07:59:57.051Z,17.87
2023-03-31T08:02:30.235Z,17.85
2023-03-31T08:05:03.395Z,22.02
2023-03-31T08:07:38.207Z,21.25
2023-03-31T08:10:15.012Z,20.65
2023-03-31T08:12:49.168Z,17.12
2023-03-31T08:15:22.012Z,22.70
2023-03-31T08:17:55.589Z,20.57
2023-03-31T08:20:28.542Z,19.37
2023-03-31T08:23:01.817Z,22.20
2023-03-31T08:25:34.871Z,21.52
2023-03-31T08:28:09.054Z,19.12
2023-03-31T08:30:43.203Z,19.40
2023-03-31T08:33:16.315Z,17.32
2023-03-31T08:35:49.469Z,22.27
2023-03-31T08:41:03.283Z,18.42
2023-03-31T08:43:43.263Z,19.23
2023-03-31T08:46:18.942Z,23.38
2023-03-31T08:48:58.898Z,19.17
2023-03-31T08:51:41.403Z,21.42
2023-03-31T08:54:27.750Z,16.05
2023-03-31T08:57:00.848Z,18.05
2023-03-31T08:59:45.685Z,17.98
2023-03-31T09:02:58.799Z,18.85
2023-03-31T09:06:00.213Z,20.70
2023-03-31T09:08:38.342Z,17.85
2023-03-31T09:11:23.512Z,20.15
2023-03-31T09:14:36.929Z,18.77
2023-03-31T09:17:35.293Z,16.55
2023-03-31T09:20:16.350Z,20.20
2023-03-31T09:22:59.725Z,21.48
2023-03-31T09:25:56.144Z,13.83
2023-03-31T09:28:38.598Z,13.68
2023-03-31T09:31:18.029Z,11.65
2023-03-31T09:33:53.940Z,12.78
2023-03-31T09:36:26.584Z,12.75
2023-03-31T09:38:59.319Z,18.57
2023-03-31T09:41:34.390Z,14.95
2023-03-31T09:44:10.751Z,13.13
2023-03-31T09:46:44.096Z,14.58
2023-03-31T09:49:20.775Z,14.63
2023-03-31T09:52:03.579Z,14.90
2023-03-31T09:54:56.912Z,12.45
2023-03-31T09:57:36.362Z,15.48
2023-03-31T10:00:18.055Z,12.47
2023-03-31T10:02:58.981Z,14.85
2023-03-31T10:05:52.359Z,13.68
2023-03-31T10:08:37.513Z,14.98
2023-03-31T10:11:12.742Z,12.88
2023-03-31T10:14:14.529Z,13.60
2023-03-31T10:16:55.980Z,12.03
2023-03-31T10:19:35.991Z,13.60
2023-03-31T10:22:25.222Z,15.15
2023-03-31T10:25:19.480Z,11.38
2023-03-31T10:27:55.064Z,11.78
2023-03-31T10:30:34.109Z,10.93
2023-03-31T10:36:00.742Z,12.80
2023-03-31T10:38:43.780Z,11.60
2023-03-31T10:41:38.362Z,11.45
2023-03-31T10:44:32.004Z,13.65
2023-03-31T10:47:21.372Z,12.65
2023-03-31T10:49:57.958Z,14.83
2023-03-31T10:52:31.331Z,13.03
2023-03-31T10:55:04.328Z,12.55
2023-03-31T10:57:47.912Z,15.43
2023-03-31T11:00:46.251Z,13.85
2023-03-31T11:03:54.713Z,11.40
2023-03-31T11:06:56.840Z,16.35
2023-03-31T11:09:57.989Z,13.48
2023-03-31T11:12:45.202Z,14.53
2023-03-31T11:15:28.527Z,14.63
2023-03-31T11:18:09.711Z,10.78
2023-03-31T11:21:05.971Z,10.58
2023-03-31T11:24:06.738Z,11.45
2023-03-31T11:27:06.499Z,12.53
2023-03-31T11:29:50.066Z,13.32
2023-03-31T11:32:44.312Z,12.03
2023-03-31T11:35:39.647Z,13.37
2023-03-31T11:41:14.956Z,14.65
2023-03-31T11:43:54.876Z,14.70
2023-03-31T11:46:41.161Z,17.17
2023-03-31T11:49:26.627Z,13.85
2023-03-31T11:52:14.548Z,20.70
2023-03-31T11:55:19.154Z,13.10
2023-03-31T11:58:11.812Z,18.12
2023-03-31T12:01:00.187Z,14.85
2023-03-31T12:03:56.100Z,14.75
2023-03-31T12:06:32.846Z,15.75
2023-03-31T12:09:29.701Z,13.70
2023-03-31T12:12:17.508Z,14.15
2023-03-31T12:14:54.643Z,17.98
2023-03-31T12:17:29.790Z,15.40
2023-03-31T12:20:10.962Z,15.93
2023-03-31T12:22:48.217Z,20.48
2023-03-31T12:25:25.513Z,16.60
2023-03-31T12:27:59.055Z,18.23
2023-03-31T12:30:42.481Z,16.32
2023-03-31T12:33:34.774Z,18.50
2023-03-31T12:36:15.983Z,14.80
2023-03-31T12:39:18.588Z,21.70
2023-03-31T12:42:43.415Z,16.57
2023-03-31T12:45:29.774Z,19.90
2023-03-31T12:48:27.934Z,19.17
2023-03-31T12:51:11.717Z,16.45
2023-03-31T12:54:22.871Z,16.75
2023-03-31T12:57:08.077Z,21.48
2023-03-31T12:59:41.996Z,14.93
2023-03-31T13:02:19.534Z,13.27
2023-03-31T13:04:53.579Z,17.42
2023-03-31T13:07:33.912Z,14.33
2023-03-31T13:10:29.303Z,16.35
2023-03-31T13:13:17.038Z,13.32
2023-03-31T13:15:58.654Z,12.47
2023-03-31T13:18:34.196Z,16.55
2023-03-31T13:21:08.528Z,15.75
2023-03-31T13:23:42.196Z,19.17
2023-03-31T13:26:38.499Z,18.87
2023-03-31T13:29:19.902Z,15.25
2023-03-31T13:32:06.024Z,19.73
2023-03-31T13:35:07.452Z,17.23
2023-03-31T13:38:05.886Z,12.95
2023-03-31T13:41:11.772Z,12.37
2023-03-31T13:44:26.083Z,11.25
2023-03-31T13:47:44.542Z,12.90
2023-03-31T13:50:40.200Z,12.30
2023-03-31T13:53:46.258Z,10.93
2023-03-31T13:56:59.931Z,12.23
2023-03-31T14:00:01.177Z,11.25
2023-03-31T14:02:56.302Z,12.23
2023-03-31T14:05:37.312Z,11.95
2023-03-31T14:08:27.792Z,13.05
2023-03-31T14:11:14.402Z,12.23
2023-03-31T14:14:01.919Z,13.13
2023-03-31T14:16:42.065Z,9.00
2023-03-31T14:19:47.740Z,11.30
2023-03-31T14:22:34.243Z,11.08
2023-03-31T14:25:51.170Z,11.95
2023-03-31T14:28:58.372Z,11.43
2023-03-31T14:31:41.465Z,12.47
2023-03-31T14:34:43.001Z,9.58
2023-03-31T14:37:18.045Z,13.72
2023-03-31T14:39:56.828Z,12.15
2023-03-31T14:42:40.007Z,13.18
2023-03-31T14:45:25.846Z,14.75
2023-03-31T14:48:01.380Z,13.72
2023-03-31T14:50:36.646Z,14.03
2023-03-31T14:53:22.182Z,10.32
2023-03-31T14:56:03.717Z,10.72
2023-03-31T14:58:40.557Z,13.43
2023-03-31T15:01:17.704Z,12.20
2023-03-31T15:03:51.964Z,11.65
2023-03-31T15:06:26.939Z,12.68
2023-03-31T15:08:59.592Z,10.58
2023-03-31T15:11:32.748Z,9.88
2023-03-31T15:14:06.109Z,12.60
2023-03-31T15:16:43.030Z,11.63
2023-03-31T15:19:20.038Z,12.35
2023-03-31T15:22:04.461Z,15.58
2023-03-31T15:24:37.450Z,14.20
2023-03-31T15:27:29.767Z,12.53
2023-03-31T15:29:57.570Z,13.88
2023-03-31T15:32:32.785Z,15.23
2023-03-31T15:35:20.980Z,17.50
2023-03-31T15:37:42.842Z,16.87
2023-03-31T15:40:25.372Z,20.57
2023-03-31T15:43:25.771Z,19.00
2023-03-31T15:46:01.641Z,12.58
2023-03-31T15:48:36.912Z,14.75
2023-03-31T15:51:36.479Z,14.47
2023-03-31T15:54:36.134Z,17.92
2023-03-31T15:57:10.438Z,16.23
2023-03-31T15:59:56.772Z,18.80
2023-03-31T16:02:43.210Z,19.87
2023-03-31T16:05:27.574Z,18.50
2023-03-31T16:08:01.850Z,16.52
2023-03-31T16:10:35.790Z,16.05
2023-03-31T16:13:10.654Z,15.28
2023-03-31T16:15:48.320Z,15.28
2023-03-31T16:18:34.760Z,17.48
2023-03-31T16:21:09.348Z,17.40
2023-03-31T16:23:43.935Z,16.82
2023-03-31T16:26:24.101Z,17.98
2023-03-31T16:28:57.742Z,19.90
2023-03-31T16:31:40.571Z,19.67
2023-03-31T16:34:13.865Z,21.93
2023-03-31T16:36:46.659Z,22.32
2023-03-31T16:39:19.998Z,23.90
2023-03-31T16:41:52.458Z,22.05
2023-03-31T16:44:24.888Z,21.85
2023-03-31T16:46:58.462Z,22.98
2023-03-31T16:49:31.639Z,24.40
2023-03-31T16:52:06.796Z,22.98
2023-03-31T16:54:39.958Z,22.77
2023-03-31T16:57:13.968Z,23.52
2023-03-31T16:59:46.846Z,24.95
2023-03-31T17:02:21.851Z,28.45
2023-03-31T17:04:59.469Z,27.02
2023-03-31T17:07:29.099Z,27.48
2023-03-31T17:10:02.241Z,27.48
2023-03-31T17:12:36.286Z,23.77
2023-03-31T17:15:10.724Z,27.80
2023-03-31T17:17:44.618Z,26.82
2023-03-31T17:20:17.685Z,27.07
2023-03-31T17:22:51.071Z,27.17
2023-03-31T17:25:23.567Z,23.27
2023-03-31T17:27:56.478Z,26.12
2023-03-31T17:30:29.344Z,26.30
2023-03-31T17:33:02.844Z,25.35
2023-03-31T17:35:35.781Z,25.65
2023-03-31T17:38:09.862Z,26.05
2023-03-31T17:40:43.464Z,26.90
2023-03-31T17:43:17.802Z,25.62
2023-03-31T17:45:51.293Z,25.68
2023-03-31T17:48:26.701Z,32.65
2023-03-31T17:50:59.689Z,26.45
2023-03-31T17:53:32.935Z,22.37
2023-03-31T17:56:06.858Z,23.85
2023-03-31T17:58:40.431Z,27.85
2023-03-31T18:01:13.292Z,24.50
2023-03-31T18:03:46.580Z,37.60
2023-03-31T18:06:19.717Z,29.80
2023-03-31T18:08:53.436Z,27.05
2023-03-31T18:11:27.643Z,29.92
2023-03-31T18:14:02.826Z,29.30
2023-03-31T18:16:37.396Z,26.77
2023-03-31T18:19:10.160Z,28.20
2023-03-31T18:21:43.445Z,24.10
2023-03-31T18:24:17.142Z,25.90
2023-03-31T18:26:50.303Z,29.50
2023-03-31T18:29:23.666Z,32.87
2023-03-31T18:31:57.818Z,29.85
2023-03-31T18:34:31.489Z,31.52
2023-03-31T18:37:05.710Z,29.80
2023-03-31T18:39:38.522Z,32.17
2023-03-31T18:42:12.616Z,37.40
2023-03-31T18:44:46.590Z,41.33
2023-03-31T18:47:19.920Z,33.13
2023-03-31T18:49:54.694Z,28.42
2023-03-31T18:52:27.466Z,27.65
2023-03-31T18:55:00.813Z,30.97
2023-03-31T18:57:34.219Z,29.57
2023-03-31T19:00:10.273Z,27.55
2023-03-31T19:02:46.894Z,30.02
2023-03-31T19:05:20.177Z,32.08
2023-03-31T19:07:54.379Z,26.73
2023-03-31T19:10:27.853Z,26.82
2023-03-31T19:13:01.091Z,27.55
2023-03-31T19:15:34.130Z,29.00
2023-03-31T19:18:07.368Z,30.02
2023-03-31T19:20:41.140Z,30.63
2023-03-31T19:23:13.751Z,28.60
2023-03-31T19:25:46.710Z,33.48
2023-03-31T19:28:19.559Z,32.30
2023-03-31T19:30:53.634Z,33.38
2023-03-31T19:33:28.381Z,33.58
2023-03-31T19:36:01.030Z,33.20
2023-03-31T19:38:35.524Z,31.75
2023-03-31T19:41:09.161Z,30.15
2023-03-31T19:43:42.011Z,33.60
2023-03-31T19:46:15.433Z,30.70
2023-03-31T19:48:48.718Z,30.30
2023-03-31T19:51:22.230Z,29.70
2023-03-31T19:53:57.066Z,34.45
2023-03-31T19:56:31.745Z,30.02
2023-03-31T19:59:05.705Z,30.50
2023-03-31T20:01:39.203Z,30.37
2023-03-31T20:04:14.386Z,28.27
2023-03-31T20:09:20.912Z,31.55
2023-03-31T20:11:54.508Z,27.93
2023-03-31T20:14:28.509Z,30.72
2023-03-31T20:17:03.346Z,28.45
2023-03-31T20:19:36.440Z,28.62
2023-03-31T20:22:09.210Z,27.48
2023-03-31T20:24:42.558Z,30.97
2023-03-31T20:27:16.061Z,27.70
2023-03-31T20:29:49.174Z,28.90
2023-03-31T20:32:22.554Z,29.55
2023-03-31T20:34:55.441Z,27.30
2023-03-31T20:37:28.792Z,28.95
2023-03-31T20:40:01.554Z,26.33
2023-03-31T20:42:34.869Z,26.82
2023-03-31T20:45:08.928Z,25.50
2023-03-31T20:47:41.884Z,28.38
2023-03-31T20:50:15.436Z,28.83
2023-03-31T20:55:22.064Z,25.35
2023-03-31T20:57:55.192Z,27.42
2023-03-31T21:00:27.891Z,27.40
2023-03-31T21:03:02.701Z,25.05
2023-03-31T21:05:44.473Z,28.10
2023-03-31T21:08:17.067Z,27.40
2023-03-31T21:10:50.100Z,24.15
2023-03-31T21:13:24.196Z,26.25
2023-03-31T21:15:57.135Z,26.35
2023-03-31T21:18:31.834Z,25.85
2023-03-31T21:21:07.181Z,29.98
2023-03-31T21:23:40.424Z,26.42
2023-03-31T21:26:14.716Z,27.90
2023-03-31T21:28:48.319Z,26.07
2023-03-31T21:31:22.640Z,27.43
2023-03-31T21:33:57.902Z,24.82
2023-03-31T21:36:30.894Z,27.62
2023-03-31T21:39:03.472Z,25.52
2023-03-31T21:41:37.877Z,25.80
2023-03-31T21:44:10.618Z,26.82
2023-03-31T21:46:45.219Z,23.75
2023-03-31T21:49:18.691Z,26.90
2023-03-31T21:51:51.883Z,27.30
2023-03-31T21:54:24.342Z,23.70
2023-03-31T21:56:57.245Z,25.80
2023-03-31T21:59:29.643Z,22.00
2023-03-31T22:02:02.542Z,27.87
2023-03-31T22:04:35.748Z,25.82
2023-03-31T22:07:08.224Z,26.37
2023-03-31T22:09:41.478Z,24.92
2023-03-31T22:12:14.795Z,24.50
2023-03-31T22:14:48.243Z,25.70
2023-03-31T22:17:21.203Z,28.73
2023-03-31T22:19:54.013Z,28.20
2023-03-31T22:22:26.690Z,23.35
2023-03-31T22:24:59.642Z,23.75
2023-03-31T22:27:32.696Z,24.52
2023-03-31T22:30:06.798Z,25.48
2023-03-31T22:32:39.456Z,27.32
2023-03-31T22:35:12.362Z,27.25
2023-03-31T22:37:44.893Z,22.98
2023-03-31T22:40:17.790Z,25.00
2023-03-31T22:42:50.935Z,26.03
2023-03-31T22:45:23.664Z,28.67
2023-03-31T22:47:56.751Z,24.30
2023-03-31T22:50:29.428Z,25.77
2023-03-31T22:53:02.110Z,27.93
2023-03-31T22:55:34.876Z,27.82
2023-03-31T22:58:07.565Z,26.73
2023-03-31T23:00:41.410Z,25.60
2023-03-31T23:03:14.816Z,26.93
2023-03-31T23:05:47.453Z,25.43
2023-03-31T23:08:20.443Z,28.83
2023-03-31T23:10:57.934Z,26.60
2023-03-31T23:13:32.156Z,26.55
2023-03-31T23:16:13.783Z,24.77
2023-03-31T23:18:47.705Z,27.05
2023-03-31T23:21:25.897Z,28.95
2023-03-31T23:24:02.560Z,27.20
2023-03-31T23:26:36.071Z,25.40
2023-03-31T23:29:09.922Z,25.00
2023-03-31T23:31:42.553Z,27.65
2023-03-31T23:34:15.209Z,32.60
2023-03-31T23:36:47.973Z,30.80
2023-03-31T23:39:21.687Z,26.65
2023-03-31T23:41:54.622Z,25.90
2023-03-31T23:44:27.448Z,27.35
2023-03-31T23:47:00.373Z,26.57
2023-03-31T23:49:33.795Z,24.70
2023-03-31T23:52:06.898Z,27.58
2023-03-31T23:54:39.331Z,25.57
2023-03-31T23:57:11.977Z,26.02
2023-03-31T23:59:45.274Z,26.15
